sensor_id;sensor_type;location;lat;lon;timestamp;P1;durP1;ratioP1;P2;durP2;ratioP2
33786;SDS011;29742;51.540;9.358;2024-02-15T00:02:48;0.10;;;0.10;;
33786;SDS011;29742;51.540;9.358;2024-02-15T00:07:48;0.13;;;0.10;;
33786;SDS011;29742;51.540;9.358;2024-02-15T00:12:49;0.20;;;0.20;;
33786;SDS011;29742;51.540;9.358;2024-02-15T00:17:51;0.63;;;0.20;;
33786;SDS011;29742;51.540;9.358;2024-02-15T00:22:51;0.10;;;0.10;;
33786;SDS011;29742;51.540;9.358;2024-02-15T00:27:52;0.28;;;0.10;;
33786;SDS011;29742;51.540;9.358;2024-02-15T00:32:53;0.10;;;0.10;;
33786;SDS011;29742;51.540;9.358;2024-02-15T00:37:53;0.15;;;0.00;;
33786;SDS011;29742;51.540;9.358;2024-02-15T00:42:54;0.00;;;0.00;;
33786;SDS011;29742;51.540;9.358;2024-02-15T00:47:54;0.00;;;0.00;;
33786;SDS011;29742;51.540;9.358;2024-02-15T00:52:56;0.30;;;0.10;;
33786;SDS011;29742;51.540;9.358;2024-02-15T00:57:56;0.08;;;0.00;;
33786;SDS011;29742;51.540;9.358;2024-02-15T01:02:57;0.03;;;0.03;;
33786;SDS011;29742;51.540;9.358;2024-02-15T01:07:58;0.10;;;0.10;;
33786;SDS011;29742;51.540;9.358;2024-02-15T01:12:58;0.43;;;0.22;;
33786;SDS011;29742;51.540;9.358;2024-02-15T01:17:59;0.43;;;0.10;;
33786;SDS011;29742;51.540;9.358;2024-02-15T01:22:59;0.00;;;0.00;;
33786;SDS011;29742;51.540;9.358;2024-02-15T01:27:59;0.20;;;0.13;;
33786;SDS011;29742;51.540;9.358;2024-02-15T01:33:02;0.00;;;0.00;;
33786;SDS011;29742;51.540;9.358;2024-02-15T01:38:02;0.10;;;0.00;;
33786;SDS011;29742;51.540;9.358;2024-02-15T01:43:03;0.25;;;0.10;;
33786;SDS011;29742;51.540;9.358;2024-02-15T01:48:04;0.00;;;0.00;;
33786;SDS011;29742;51.540;9.358;2024-02-15T01:53:05;0.13;;;0.08;;
33786;SDS011;29742;51.540;9.358;2024-02-15T01:58:08;0.10;;;0.05;;
33786;SDS011;29742;51.540;9.358;2024-02-15T02:03:08;0.30;;;0.20;;
33786;SDS011;29742;51.540;9.358;2024-02-15T02:08:09;0.22;;;0.08;;
33786;SDS011;29742;51.540;9.358;2024-02-15T02:13:10;0.10;;;0.10;;
33786;SDS011;29742;51.540;9.358;2024-02-15T02:18:12;0.10;;;0.05;;
33786;SDS011;29742;51.540;9.358;2024-02-15T02:23:16;0.30;;;0.20;;
33786;SDS011;29742;51.540;9.358;2024-02-15T02:28:18;0.25;;;0.13;;
33786;SDS011;29742;51.540;9.358;2024-02-15T02:33:19;0.00;;;0.00;;
33786;SDS011;29742;51.540;9.358;2024-02-15T02:38:22;0.20;;;0.10;;
33786;SDS011;29742;51.540;9.358;2024-02-15T02:43:26;0.10;;;0.10;;
33786;SDS011;29742;51.540;9.358;2024-02-15T02:48:26;0.10;;;0.10;;
33786;SDS011;29742;51.540;9.358;2024-02-15T02:53:27;0.10;;;0.10;;
33786;SDS011;29742;51.540;9.358;2024-02-15T02:58:27;0.00;;;0.00;;
33786;SDS011;29742;51.540;9.358;2024-02-15T03:03:28;0.05;;;0.00;;
33786;SDS011;29742;51.540;9.358;2024-02-15T03:08:29;0.00;;;0.00;;
33786;SDS011;29742;51.540;9.358;2024-02-15T03:13:29;0.03;;;0.00;;
33786;SDS011;29742;51.540;9.358;2024-02-15T03:18:30;0.00;;;0.00;;
33786;SDS011;29742;51.540;9.358;2024-02-15T03:23:32;0.43;;;0.20;;
33786;SDS011;29742;51.540;9.358;2024-02-15T03:28:33;0.10;;;0.03;;
33786;SDS011;29742;51.540;9.358;2024-02-15T03:33:35;0.08;;;0.03;;
33786;SDS011;29742;51.540;9.358;2024-02-15T03:38:36;0.10;;;0.10;;
33786;SDS011;29742;51.540;9.358;2024-02-15T03:43:36;0.00;;;0.00;;
33786;SDS011;29742;51.540;9.358;2024-02-15T03:48:37;0.00;;;0.00;;
33786;SDS011;29742;51.540;9.358;2024-02-15T03:53:37;0.00;;;0.00;;
33786;SDS011;29742;51.540;9.358;2024-02-15T03:58:38;0.00;;;0.00;;
33786;SDS011;29742;51.540;9.358;2024-02-15T04:03:38;0.00;;;0.00;;
33786;SDS011;29742;51.540;9.358;2024-02-15T04:08:39;0.10;;;0.10;;
33786;SDS011;29742;51.540;9.358;2024-02-15T04:13:40;0.22;;;0.10;;
33786;SDS011;29742;51.540;9.358;2024-02-15T04:18:40;0.10;;;0.00;;
33786;SDS011;29742;51.540;9.358;2024-02-15T04:23:42;0.10;;;0.10;;
33786;SDS011;29742;51.540;9.358;2024-02-15T04:28:43;0.10;;;0.00;;
33786;SDS011;29742;51.540;9.358;2024-02-15T04:33:47;0.00;;;0.00;;
33786;SDS011;29742;51.540;9.358;2024-02-15T04:38:52;0.00;;;0.00;;
33786;SDS011;29742;51.540;9.358;2024-02-15T04:43:52;0.05;;;0.05;;
33786;SDS011;29742;51.540;9.358;2024-02-15T04:48:53;0.00;;;0.00;;
33786;SDS011;29742;51.540;9.358;2024-02-15T04:53:54;0.08;;;0.00;;
33786;SDS011;29742;51.540;9.358;2024-02-15T04:58:57;0.08;;;0.08;;
33786;SDS011;29742;51.540;9.358;2024-02-15T05:03:58;0.00;;;0.00;;
33786;SDS011;29742;51.540;9.358;2024-02-15T05:08:58;0.03;;;0.03;;
33786;SDS011;29742;51.540;9.358;2024-02-15T05:13:59;0.28;;;0.10;;
33786;SDS011;29742;51.540;9.358;2024-02-15T05:19:00;0.05;;;0.03;;
33786;SDS011;29742;51.540;9.358;2024-02-15T05:24:01;0.10;;;0.00;;
33786;SDS011;29742;51.540;9.358;2024-02-15T05:29:03;0.10;;;0.00;;
33786;SDS011;29742;51.540;9.358;2024-02-15T05:34:05;0.13;;;0.00;;
33786;SDS011;29742;51.540;9.358;2024-02-15T05:39:08;0.00;;;0.00;;
33786;SDS011;29742;51.540;9.358;2024-02-15T05:44:11;0.00;;;0.00;;
33786;SDS011;29742;51.540;9.358;2024-02-15T05:49:11;0.10;;;0.10;;
33786;SDS011;29742;51.540;9.358;2024-02-15T05:54:15;0.13;;;0.03;;
33786;SDS011;29742;51.540;9.358;2024-02-15T05:59:16;0.17;;;0.10;;
33786;SDS011;29742;51.540;9.358;2024-02-15T06:04:16;0.00;;;0.00;;
33786;SDS011;29742;51.540;9.358;2024-02-15T06:09:17;0.00;;;0.00;;
33786;SDS011;29742;51.540;9.358;2024-02-15T06:14:17;0.20;;;0.10;;
33786;SDS011;29742;51.540;9.358;2024-02-15T06:19:17;0.03;;;0.03;;
33786;SDS011;29742;51.540;9.358;2024-02-15T06:24:18;0.17;;;0.10;;
33786;SDS011;29742;51.540;9.358;2024-02-15T06:29:19;0.32;;;0.10;;
33786;SDS011;29742;51.540;9.358;2024-02-15T06:34:37;0.20;;;0.13;;
33786;SDS011;29742;51.540;9.358;2024-02-15T06:39:57;0.15;;;0.08;;
33786;SDS011;29742;51.540;9.358;2024-02-15T06:44:57;0.00;;;0.00;;
33786;SDS011;29742;51.540;9.358;2024-02-15T06:49:57;0.08;;;0.08;;
33786;SDS011;29742;51.540;9.358;2024-02-15T06:54:58;0.20;;;0.10;;
33786;SDS011;29742;51.540;9.358;2024-02-15T06:59:58;0.35;;;0.30;;
33786;SDS011;29742;51.540;9.358;2024-02-15T07:05:01;0.00;;;0.00;;
33786;SDS011;29742;51.540;9.358;2024-02-15T07:10:05;0.00;;;0.00;;
33786;SDS011;29742;51.540;9.358;2024-02-15T07:15:06;0.03;;;0.00;;
33786;SDS011;29742;51.540;9.358;2024-02-15T07:20:12;0.00;;;0.00;;
33786;SDS011;29742;51.540;9.358;2024-02-15T07:25:17;0.17;;;0.17;;
33786;SDS011;29742;51.540;9.358;2024-02-15T07:30:18;0.25;;;0.10;;
33786;SDS011;29742;51.540;9.358;2024-02-15T07:35:18;0.13;;;0.10;;
33786;SDS011;29742;51.540;9.358;2024-02-15T07:40:19;0.10;;;0.10;;
33786;SDS011;29742;51.540;9.358;2024-02-15T07:45:22;0.00;;;0.00;;
33786;SDS011;29742;51.540;9.358;2024-02-15T07:50:22;0.10;;;0.00;;
33786;SDS011;29742;51.540;9.358;2024-02-15T07:55:23;0.03;;;0.03;;
33786;SDS011;29742;51.540;9.358;2024-02-15T08:00:24;0.20;;;0.10;;
33786;SDS011;29742;51.540;9.358;2024-02-15T08:05:27;0.00;;;0.00;;
33786;SDS011;29742;51.540;9.358;2024-02-15T08:10:27;0.03;;;0.00;;
33786;SDS011;29742;51.540;9.358;2024-02-15T08:15:28;0.20;;;0.10;;
33786;SDS011;29742;51.540;9.358;2024-02-15T08:20:29;0.20;;;0.20;;
33786;SDS011;29742;51.540;9.358;2024-02-15T08:25:31;0.30;;;0.10;;
33786;SDS011;29742;51.540;9.358;2024-02-15T08:30:32;0.20;;;0.17;;
33786;SDS011;29742;51.540;9.358;2024-02-15T08:35:32;0.30;;;0.15;;
33786;SDS011;29742;51.540;9.358;2024-02-15T08:40:32;0.17;;;0.17;;
33786;SDS011;29742;51.540;9.358;2024-02-15T08:45:33;0.28;;;0.28;;
33786;SDS011;29742;51.540;9.358;2024-02-15T08:50:35;0.20;;;0.20;;
33786;SDS011;29742;51.540;9.358;2024-02-15T08:55:35;0.10;;;0.10;;
33786;SDS011;29742;51.540;9.358;2024-02-15T09:00:36;0.22;;;0.13;;
33786;SDS011;29742;51.540;9.358;2024-02-15T09:05:41;0.65;;;0.30;;
33786;SDS011;29742;51.540;9.358;2024-02-15T09:10:41;0.25;;;0.17;;
33786;SDS011;29742;51.540;9.358;2024-02-15T09:15:42;0.17;;;0.13;;
33786;SDS011;29742;51.540;9.358;2024-02-15T09:20:43;0.55;;;0.50;;
33786;SDS011;29742;51.540;9.358;2024-02-15T09:25:49;0.20;;;0.20;;
33786;SDS011;29742;51.540;9.358;2024-02-15T09:30:51;0.30;;;0.30;;
33786;SDS011;29742;51.540;9.358;2024-02-15T09:35:52;1.95;;;0.73;;
33786;SDS011;29742;51.540;9.358;2024-02-15T09:40:55;2.47;;;0.85;;
33786;SDS011;29742;51.540;9.358;2024-02-15T09:45:55;1.80;;;0.70;;
33786;SDS011;29742;51.540;9.358;2024-02-15T09:50:55;2.83;;;0.98;;
33786;SDS011;29742;51.540;9.358;2024-02-15T09:55:56;4.05;;;1.08;;
33786;SDS011;29742;51.540;9.358;2024-02-15T10:01:04;4.30;;;1.30;;
33786;SDS011;29742;51.540;9.358;2024-02-15T10:06:09;3.85;;;1.00;;
33786;SDS011;29742;51.540;9.358;2024-02-15T10:11:10;2.28;;;0.60;;
33786;SDS011;29742;51.540;9.358;2024-02-15T10:16:19;2.35;;;0.90;;
33786;SDS011;29742;51.540;9.358;2024-02-15T10:21:25;1.35;;;0.93;;
33786;SDS011;29742;51.540;9.358;2024-02-15T10:26:28;3.55;;;1.15;;
33786;SDS011;29742;51.540;9.358;2024-02-15T10:31:29;2.70;;;0.77;;
33786;SDS011;29742;51.540;9.358;2024-02-15T10:36:29;2.28;;;0.70;;
33786;SDS011;29742;51.540;9.358;2024-02-15T10:41:30;1.95;;;0.85;;
33786;SDS011;29742;51.540;9.358;2024-02-15T10:46:31;3.15;;;1.13;;
33786;SDS011;29742;51.540;9.358;2024-02-15T10:51:33;3.38;;;0.95;;
33786;SDS011;29742;51.540;9.358;2024-02-15T10:56:36;2.55;;;0.80;;
33786;SDS011;29742;51.540;9.358;2024-02-15T11:01:37;2.92;;;1.08;;
33786;SDS011;29742;51.540;9.358;2024-02-15T11:06:38;3.45;;;1.20;;
33786;SDS011;29742;51.540;9.358;2024-02-15T11:11:43;1.05;;;0.40;;
33786;SDS011;29742;51.540;9.358;2024-02-15T11:16:50;2.15;;;0.75;;
33786;SDS011;29742;51.540;9.358;2024-02-15T11:21:53;4.00;;;1.20;;
33786;SDS011;29742;51.540;9.358;2024-02-15T11:26:57;1.58;;;0.95;;
33786;SDS011;29742;51.540;9.358;2024-02-15T11:31:58;1.95;;;0.80;;
33786;SDS011;29742;51.540;9.358;2024-02-15T11:36:59;1.38;;;0.60;;
33786;SDS011;29742;51.540;9.358;2024-02-15T11:42:45;2.63;;;1.00;;
33786;SDS011;29742;51.540;9.358;2024-02-15T11:47:28;1.38;;;0.75;;
33786;SDS011;29742;51.540;9.358;2024-02-15T11:52:30;1.63;;;0.73;;
33786;SDS011;29742;51.540;9.358;2024-02-15T11:57:31;2.00;;;0.75;;
33786;SDS011;29742;51.540;9.358;2024-02-15T12:02:47;3.00;;;0.70;;
33786;SDS011;29742;51.540;9.358;2024-02-15T12:08:06;1.40;;;0.57;;
33786;SDS011;29742;51.540;9.358;2024-02-15T12:13:25;1.88;;;0.88;;
33786;SDS011;29742;51.540;9.358;2024-02-15T12:18:45;1.75;;;0.63;;
33786;SDS011;29742;51.540;9.358;2024-02-15T12:23:47;0.50;;;0.43;;
33786;SDS011;29742;51.540;9.358;2024-02-15T12:28:54;1.48;;;0.57;;
33786;SDS011;29742;51.540;9.358;2024-02-15T12:34:04;2.63;;;0.50;;
33786;SDS011;29742;51.540;9.358;2024-02-15T12:39:07;1.33;;;0.63;;
33786;SDS011;29742;51.540;9.358;2024-02-15T12:44:11;1.05;;;0.45;;
33786;SDS011;29742;51.540;9.358;2024-02-15T12:54:23;1.98;;;0.82;;
33786;SDS011;29742;51.540;9.358;2024-02-15T12:59:23;4.70;;;1.10;;
33786;SDS011;29742;51.540;9.358;2024-02-15T13:04:24;2.63;;;1.00;;
33786;SDS011;29742;51.540;9.358;2024-02-15T13:09:25;1.95;;;0.50;;
33786;SDS011;29742;51.540;9.358;2024-02-15T13:14:25;1.67;;;0.70;;
33786;SDS011;29742;51.540;9.358;2024-02-15T13:19:29;3.38;;;0.95;;
33786;SDS011;29742;51.540;9.358;2024-02-15T13:24:29;0.93;;;0.43;;
33786;SDS011;29742;51.540;9.358;2024-02-15T13:29:30;1.38;;;0.50;;
33786;SDS011;29742;51.540;9.358;2024-02-15T13:34:32;2.58;;;0.73;;
33786;SDS011;29742;51.540;9.358;2024-02-15T13:39:33;3.47;;;0.68;;
33786;SDS011;29742;51.540;9.358;2024-02-15T13:44:33;0.50;;;0.30;;
33786;SDS011;29742;51.540;9.358;2024-02-15T13:49:34;3.60;;;0.55;;
33786;SDS011;29742;51.540;9.358;2024-02-15T13:54:34;1.80;;;0.52;;
33786;SDS011;29742;51.540;9.358;2024-02-15T13:59:35;0.30;;;0.20;;
33786;SDS011;29742;51.540;9.358;2024-02-15T14:04:35;1.02;;;0.52;;
33786;SDS011;29742;51.540;9.358;2024-02-15T14:09:35;2.15;;;0.90;;
33786;SDS011;29742;51.540;9.358;2024-02-15T14:14:36;1.83;;;0.50;;
33786;SDS011;29742;51.540;9.358;2024-02-15T14:19:37;1.77;;;0.90;;
33786;SDS011;29742;51.540;9.358;2024-02-15T14:24:38;1.90;;;0.57;;
33786;SDS011;29742;51.540;9.358;2024-02-15T14:29:38;0.90;;;0.38;;
33786;SDS011;29742;51.540;9.358;2024-02-15T14:34:44;1.20;;;0.40;;
33786;SDS011;29742;51.540;9.358;2024-02-15T14:39:45;1.30;;;0.43;;
33786;SDS011;29742;51.540;9.358;2024-02-15T14:44:46;1.17;;;0.75;;
33786;SDS011;29742;51.540;9.358;2024-02-15T14:49:47;1.13;;;0.38;;
33786;SDS011;29742;51.540;9.358;2024-02-15T14:54:47;0.43;;;0.30;;
33786;SDS011;29742;51.540;9.358;2024-02-15T14:59:47;0.75;;;0.40;;
33786;SDS011;29742;51.540;9.358;2024-02-15T15:04:48;1.13;;;0.30;;
33786;SDS011;29742;51.540;9.358;2024-02-15T15:10:07;0.45;;;0.32;;
33786;SDS011;29742;51.540;9.358;2024-02-15T15:15:26;0.55;;;0.40;;
33786;SDS011;29742;51.540;9.358;2024-02-15T15:20:27;0.95;;;0.35;;
33786;SDS011;29742;51.540;9.358;2024-02-15T15:25:27;0.35;;;0.35;;
33786;SDS011;29742;51.540;9.358;2024-02-15T15:30:28;0.28;;;0.25;;
33786;SDS011;29742;51.540;9.358;2024-02-15T15:35:30;1.38;;;0.40;;
33786;SDS011;29742;51.540;9.358;2024-02-15T15:40:30;0.77;;;0.50;;
33786;SDS011;29742;51.540;9.358;2024-02-15T15:45:34;2.38;;;0.50;;
33786;SDS011;29742;51.540;9.358;2024-02-15T15:50:35;1.07;;;0.50;;
33786;SDS011;29742;51.540;9.358;2024-02-15T15:55:35;2.13;;;0.30;;
33786;SDS011;29742;51.540;9.358;2024-02-15T16:00:36;1.90;;;0.50;;
33786;SDS011;29742;51.540;9.358;2024-02-15T16:05:36;3.88;;;0.57;;
33786;SDS011;29742;51.540;9.358;2024-02-15T16:10:37;0.80;;;0.40;;
33786;SDS011;29742;51.540;9.358;2024-02-15T16:15:38;0.70;;;0.40;;
33786;SDS011;29742;51.540;9.358;2024-02-15T16:20:40;1.55;;;0.45;;
33786;SDS011;29742;51.540;9.358;2024-02-15T16:25:40;0.40;;;0.25;;
33786;SDS011;29742;51.540;9.358;2024-02-15T16:30:40;0.73;;;0.40;;
33786;SDS011;29742;51.540;9.358;2024-02-15T16:35:41;0.50;;;0.30;;
33786;SDS011;29742;51.540;9.358;2024-02-15T16:40:41;1.10;;;0.55;;
33786;SDS011;29742;51.540;9.358;2024-02-15T16:45:42;1.33;;;0.50;;
33786;SDS011;29742;51.540;9.358;2024-02-15T16:50:42;0.50;;;0.30;;
33786;SDS011;29742;51.540;9.358;2024-02-15T16:55:45;0.43;;;0.30;;
33786;SDS011;29742;51.540;9.358;2024-02-15T17:00:46;0.52;;;0.50;;
33786;SDS011;29742;51.540;9.358;2024-02-15T17:05:46;0.60;;;0.28;;
33786;SDS011;29742;51.540;9.358;2024-02-15T17:10:47;0.73;;;0.40;;
33786;SDS011;29742;51.540;9.358;2024-02-15T17:15:48;0.70;;;0.38;;
33786;SDS011;29742;51.540;9.358;2024-02-15T17:20:49;1.05;;;0.60;;
33786;SDS011;29742;51.540;9.358;2024-02-15T17:25:49;1.13;;;0.47;;
33786;SDS011;29742;51.540;9.358;2024-02-15T17:30:52;0.57;;;0.38;;
33786;SDS011;29742;51.540;9.358;2024-02-15T17:35:52;0.45;;;0.35;;
33786;SDS011;29742;51.540;9.358;2024-02-15T17:40:54;0.25;;;0.25;;
33786;SDS011;29742;51.540;9.358;2024-02-15T17:45:54;0.28;;;0.17;;
33786;SDS011;29742;51.540;9.358;2024-02-15T17:50:55;0.50;;;0.20;;
33786;SDS011;29742;51.540;9.358;2024-02-15T17:55:55;0.30;;;0.30;;
33786;SDS011;29742;51.540;9.358;2024-02-15T18:00:59;0.50;;;0.45;;
33786;SDS011;29742;51.540;9.358;2024-02-15T18:05:59;0.43;;;0.25;;
33786;SDS011;29742;51.540;9.358;2024-02-15T18:11:00;1.02;;;0.35;;
33786;SDS011;29742;51.540;9.358;2024-02-15T18:16:01;1.25;;;0.50;;
33786;SDS011;29742;51.540;9.358;2024-02-15T18:21:01;0.20;;;0.20;;
33786;SDS011;29742;51.540;9.358;2024-02-15T18:26:02;0.73;;;0.40;;
33786;SDS011;29742;51.540;9.358;2024-02-15T18:31:02;0.70;;;0.50;;
33786;SDS011;29742;51.540;9.358;2024-02-15T18:36:03;0.50;;;0.30;;
33786;SDS011;29742;51.540;9.358;2024-02-15T18:41:04;0.60;;;0.43;;
33786;SDS011;29742;51.540;9.358;2024-02-15T18:46:05;0.52;;;0.40;;
33786;SDS011;29742;51.540;9.358;2024-02-15T18:51:07;0.60;;;0.40;;
33786;SDS011;29742;51.540;9.358;2024-02-15T18:56:14;0.80;;;0.40;;
33786;SDS011;29742;51.540;9.358;2024-02-15T19:01:18;0.75;;;0.40;;
33786;SDS011;29742;51.540;9.358;2024-02-15T19:06:18;0.50;;;0.30;;
33786;SDS011;29742;51.540;9.358;2024-02-15T19:11:19;1.38;;;0.52;;
33786;SDS011;29742;51.540;9.358;2024-02-15T19:16:19;0.73;;;0.45;;
33786;SDS011;29742;51.540;9.358;2024-02-15T19:21:20;0.40;;;0.30;;
33786;SDS011;29742;51.540;9.358;2024-02-15T19:26:21;0.35;;;0.30;;
33786;SDS011;29742;51.540;9.358;2024-02-15T19:31:22;0.85;;;0.40;;
33786;SDS011;29742;51.540;9.358;2024-02-15T19:36:22;0.45;;;0.40;;
33786;SDS011;29742;51.540;9.358;2024-02-15T19:41:24;0.45;;;0.30;;
33786;SDS011;29742;51.540;9.358;2024-02-15T19:46:29;0.45;;;0.30;;
33786;SDS011;29742;51.540;9.358;2024-02-15T19:51:30;0.35;;;0.30;;
33786;SDS011;29742;51.540;9.358;2024-02-15T19:56:30;0.93;;;0.40;;
33786;SDS011;29742;51.540;9.358;2024-02-15T20:01:31;0.30;;;0.30;;
33786;SDS011;29742;51.540;9.358;2024-02-15T20:06:33;0.45;;;0.25;;
33786;SDS011;29742;51.540;9.358;2024-02-15T20:11:34;0.82;;;0.40;;
33786;SDS011;29742;51.540;9.358;2024-02-15T20:16:34;0.30;;;0.30;;
33786;SDS011;29742;51.540;9.358;2024-02-15T20:21:35;0.20;;;0.20;;
33786;SDS011;29742;51.540;9.358;2024-02-15T20:26:35;0.35;;;0.30;;
33786;SDS011;29742;51.540;9.358;2024-02-15T20:31:36;0.20;;;0.20;;
33786;SDS011;29742;51.540;9.358;2024-02-15T20:36:37;0.50;;;0.38;;
33786;SDS011;29742;51.540;9.358;2024-02-15T20:41:37;0.77;;;0.50;;
33786;SDS011;29742;51.540;9.358;2024-02-15T20:46:39;0.50;;;0.30;;
33786;SDS011;29742;51.540;9.358;2024-02-15T20:51:39;0.57;;;0.30;;
33786;SDS011;29742;51.540;9.358;2024-02-15T20:56:40;0.65;;;0.40;;
33786;SDS011;29742;51.540;9.358;2024-02-15T21:01:42;0.57;;;0.45;;
33786;SDS011;29742;51.540;9.358;2024-02-15T21:06:43;0.40;;;0.30;;
33786;SDS011;29742;51.540;9.358;2024-02-15T21:11:43;0.88;;;0.38;;
33786;SDS011;29742;51.540;9.358;2024-02-15T21:16:44;0.43;;;0.40;;
33786;SDS011;29742;51.540;9.358;2024-02-15T21:21:44;0.30;;;0.20;;
33786;SDS011;29742;51.540;9.358;2024-02-15T21:26:45;0.40;;;0.38;;
33786;SDS011;29742;51.540;9.358;2024-02-15T21:31:46;1.00;;;0.40;;
33786;SDS011;29742;51.540;9.358;2024-02-15T21:36:49;0.25;;;0.25;;
33786;SDS011;29742;51.540;9.358;2024-02-15T21:41:50;1.00;;;0.45;;
33786;SDS011;29742;51.540;9.358;2024-02-15T21:46:51;0.20;;;0.20;;
33786;SDS011;29742;51.540;9.358;2024-02-15T21:51:51;0.30;;;0.20;;
33786;SDS011;29742;51.540;9.358;2024-02-15T21:56:52;0.55;;;0.45;;
33786;SDS011;29742;51.540;9.358;2024-02-15T22:01:52;0.40;;;0.35;;
33786;SDS011;29742;51.540;9.358;2024-02-15T22:06:53;0.50;;;0.40;;
33786;SDS011;29742;51.540;9.358;2024-02-15T22:11:53;0.65;;;0.45;;
33786;SDS011;29742;51.540;9.358;2024-02-15T22:16:56;0.40;;;0.30;;
33786;SDS011;29742;51.540;9.358;2024-02-15T22:21:57;0.63;;;0.50;;
33786;SDS011;29742;51.540;9.358;2024-02-15T22:26:57;0.40;;;0.28;;
33786;SDS011;29742;51.540;9.358;2024-02-15T22:31:58;0.28;;;0.28;;
33786;SDS011;29742;51.540;9.358;2024-02-15T22:37:00;0.30;;;0.22;;
33786;SDS011;29742;51.540;9.358;2024-02-15T22:42:00;0.30;;;0.20;;
33786;SDS011;29742;51.540;9.358;2024-02-15T22:47:01;0.38;;;0.10;;
33786;SDS011;29742;51.540;9.358;2024-02-15T22:52:02;0.20;;;0.20;;
33786;SDS011;29742;51.540;9.358;2024-02-15T22:57:04;0.22;;;0.20;;
33786;SDS011;29742;51.540;9.358;2024-02-15T23:02:05;0.10;;;0.10;;
33786;SDS011;29742;51.540;9.358;2024-02-15T23:07:05;0.38;;;0.28;;
33786;SDS011;29742;51.540;9.358;2024-02-15T23:12:08;0.30;;;0.30;;
33786;SDS011;29742;51.540;9.358;2024-02-15T23:17:08;0.20;;;0.20;;
33786;SDS011;29742;51.540;9.358;2024-02-15T23:22:09;0.30;;;0.25;;
33786;SDS011;29742;51.540;9.358;2024-02-15T23:27:10;0.15;;;0.10;;
33786;SDS011;29742;51.540;9.358;2024-02-15T23:32:11;0.73;;;0.20;;
33786;SDS011;29742;51.540;9.358;2024-02-15T23:37:11;0.15;;;0.10;;
33786;SDS011;29742;51.540;9.358;2024-02-15T23:42:43;0.20;;;0.20;;
33786;SDS011;29742;51.540;9.358;2024-02-15T23:47:43;0.30;;;0.25;;
33786;SDS011;29742;51.540;9.358;2024-02-15T23:52:46;0.40;;;0.20;;
33786;SDS011;29742;51.540;9.358;2024-02-15T23:57:46;0.20;;;0.20;;
